Time;durP1;ratioP1;P1;durP2;ratioP2;P2;SDS_P1;SDS_P2;PMS_P1;PMS_P2;Temp;Humidity;BMP_temperature;BMP_pressure;BME280_temperature;BME280_humidity;BME280_pressure;Samples;Min_cycle;Max_cycle;Signal;HPM_P1;HPM_P2
2024/03/29 00:00:14;;;;;;;;;;;;;;;21.00;38.63;94389.53;10462683;28;2854;-72
2024/03/29 00:05:15;;;;;;;;;;;;;;;20.99;38.57;94381.94;10469344;28;2544;-71
2024/03/29 00:10:15;;;;;;;;;;;;;;;20.99;38.74;94374.84;10462361;28;2829;-71
2024/03/29 00:15:15;;;;;;;;;;;;;;;20.96;38.46;94364.91;10462526;28;2775;-72
2024/03/29 00:20:16;;;;;;;;;;;;;;;20.95;38.90;94360.72;10462634;28;2509;-72
2024/03/29 00:25:16;;;;;;;;;;;;;;;20.94;38.62;94353.13;10467011;28;2775;-71
2024/03/29 00:30:16;;;;;;;;;;;;;;;20.92;38.86;94340.25;10465220;28;2761;-71
2024/03/29 00:35:17;;;;;;;;;;;;;;;20.90;38.88;94331.09;10469077;28;2848;-71
2024/03/29 00:40:17;;;;;;;;;;;;;;;20.89;38.44;94329.56;10464751;28;2892;-72
2024/03/29 00:45:17;;;;;;;;;;;;;;;20.88;38.59;94325.38;10463056;28;2792;-71
2024/03/29 00:50:17;;;;;;;;;;;;;;;20.86;38.93;94333.59;10496768;28;3115;-71
2024/03/29 00:55:18;;;;;;;;;;;;;;;20.84;38.83;94330.50;10459275;28;2768;-74
2024/03/29 01:00:18;;;;;;;;;;;;;;;20.82;38.86;94326.63;10466521;28;2717;-71
2024/03/29 01:05:18;;;;;;;;;;;;;;;20.80;38.49;94316.41;10464599;28;2701;-71
2024/03/29 01:10:18;;;;;;;;;;;;;;;20.79;38.55;94314.06;10470228;28;2622;-70
2024/03/29 01:15:19;;;;;;;;;;;;;;;20.79;38.85;94298.28;10472035;28;2841;-70
2024/03/29 01:20:19;;;;;;;;;;;;;;;20.77;38.81;94284.66;10471205;28;2766;-71
2024/03/29 01:25:21;;;;;;;;;;;;;;;20.76;38.60;94277.81;10473489;28;2783;-70
2024/03/29 01:30:21;;;;;;;;;;;;;;;20.73;38.60;94250.25;10473405;28;2575;-70
2024/03/29 01:35:22;;;;;;;;;;;;;;;20.72;38.72;94230.28;10471582;28;2949;-70
2024/03/29 01:40:22;;;;;;;;;;;;;;;20.70;38.46;94218.50;10468399;28;2724;-72
2024/03/29 01:45:22;;;;;;;;;;;;;;;20.69;38.48;94206.44;10474833;28;2598;-71
2024/03/29 01:50:22;;;;;;;;;;;;;;;20.68;38.42;94216.19;10472258;28;2839;-73
2024/03/29 01:55:23;;;;;;;;;;;;;;;20.66;38.49;94220.97;10473478;28;2850;-71
2024/03/29 02:00:23;;;;;;;;;;;;;;;20.65;38.62;94224.69;10469943;28;2778;-71
2024/03/29 02:05:24;;;;;;;;;;;;;;;20.64;38.26;94222.38;10474658;28;2540;-71
2024/03/29 02:10:24;;;;;;;;;;;;;;;20.61;38.49;94221.13;10453651;28;2834;-72
2024/03/29 02:15:24;;;;;;;;;;;;;;;20.60;38.24;94214.31;10484702;28;2886;-72
2024/03/29 02:20:24;;;;;;;;;;;;;;;20.59;38.46;94206.72;10468136;28;2563;-72
2024/03/29 02:25:25;;;;;;;;;;;;;;;20.57;38.45;94199.13;10468698;28;2767;-72
2024/03/29 02:30:25;;;;;;;;;;;;;;;20.56;38.40;94208.13;10467436;28;2913;-72
2024/03/29 02:35:25;;;;;;;;;;;;;;;20.55;38.31;94211.84;10470326;28;2803;-73
2024/03/29 02:40:25;;;;;;;;;;;;;;;20.52;38.25;94207.19;10484742;28;2854;-72
2024/03/29 02:45:26;;;;;;;;;;;;;;;20.52;38.29;94209.06;10471098;28;2602;-73
2024/03/29 02:50:26;;;;;;;;;;;;;;;20.50;38.11;94203.31;10472922;28;3291;-72
2024/03/29 02:55:26;;;;;;;;;;;;;;;20.48;38.30;94211.53;10474870;28;2767;-72
2024/03/29 03:00:27;;;;;;;;;;;;;;;20.47;37.95;94211.81;10471351;28;2792;-72
2024/03/29 03:05:29;;;;;;;;;;;;;;;20.46;38.14;94207.66;10470760;28;2847;-71
2024/03/29 03:15:48;;;;;;;;;;;;;;;20.42;38.03;94194.34;10482006;28;2847;-72
2024/03/29 03:20:52;;;;;;;;;;;;;;;20.40;37.88;94183.34;10468221;28;2961;-71
2024/03/29 03:25:55;;;;;;;;;;;;;;;20.38;37.86;94177.59;10496499;28;2720;-70
2024/03/29 03:30:56;;;;;;;;;;;;;;;20.37;37.77;94162.91;10469865;28;2546;-72
2024/03/29 03:35:56;;;;;;;;;;;;;;;20.36;37.91;94161.34;10464342;28;2854;-72
2024/03/29 03:40:56;;;;;;;;;;;;;;;20.35;37.93;94153.78;10467032;28;2887;-71
2024/03/29 03:46:00;;;;;;;;;;;;;;;20.34;37.89;94160.88;10464952;28;2798;-71
2024/03/29 03:51:02;;;;;;;;;;;;;;;20.33;37.97;94146.19;10474381;28;2858;-72
2024/03/29 03:56:03;;;;;;;;;;;;;;;20.32;37.68;94159.66;10464971;28;2791;-71
2024/03/29 04:01:04;;;;;;;;;;;;;;;20.32;37.89;94146.50;10463727;28;2806;-72
2024/03/29 04:06:04;;;;;;;;;;;;;;;20.29;37.55;94134.75;10478137;28;2728;-70
2024/03/29 04:11:05;;;;;;;;;;;;;;;20.29;37.46;94158.44;10464862;28;2796;-70
2024/03/29 04:16:05;;;;;;;;;;;;;;;20.27;37.53;94156.09;10480902;28;2776;-70
2024/03/29 04:21:05;;;;;;;;;;;;;;;20.25;37.71;94146.97;10462898;28;2765;-71
2024/03/29 04:26:05;;;;;;;;;;;;;;;20.25;37.63;94146.97;10480667;28;2539;-70
2024/03/29 04:31:06;;;;;;;;;;;;;;;20.24;37.48;94142.78;10463058;28;2834;-71
2024/03/29 04:36:06;;;;;;;;;;;;;;;20.23;37.56;94109.66;10462346;28;2890;-71
2024/03/29 04:41:06;;;;;;;;;;;;;;;20.22;37.45;94092.31;10469371;28;2939;-71
2024/03/29 04:46:10;;;;;;;;;;;;;;;20.21;37.79;94101.31;10476210;28;2779;-71
2024/03/29 04:51:11;;;;;;;;;;;;;;;20.20;37.64;94105.78;10482229;28;2950;-71
2024/03/29 04:56:11;;;;;;;;;;;;;;;20.19;37.77;94132.41;10478444;28;2881;-71
2024/03/29 05:01:11;;;;;;;;;;;;;;;20.17;37.93;94130.06;10479919;28;2536;-72
2024/03/29 05:06:12;;;;;;;;;;;;;;;20.17;37.73;94143.19;10473750;28;2827;-71
2024/03/29 05:11:14;;;;;;;;;;;;;;;20.18;37.25;94146.63;10495513;28;2747;-71
2024/03/29 05:16:15;;;;;;;;;;;;;;;20.23;37.28;94141.25;10480391;28;2814;-72
2024/03/29 05:21:15;;;;;;;;;;;;;;;20.29;36.80;94132.09;10475153;28;2848;-72
2024/03/29 05:26:15;;;;;;;;;;;;;;;20.32;36.81;94138.63;10472680;28;2897;-71
2024/03/29 05:31:16;;;;;;;;;;;;;;;20.37;36.78;94115.53;10504809;28;2742;-72
2024/03/29 05:36:16;;;;;;;;;;;;;;;20.43;36.93;94101.13;10481583;28;2795;-71
2024/03/29 05:41:16;;;;;;;;;;;;;;;20.46;36.87;94079.47;10493178;28;2764;-71
2024/03/29 05:46:18;;;;;;;;;;;;;;;20.52;37.04;94072.19;10478167;28;2706;-71
2024/03/29 05:51:18;;;;;;;;;;;;;;;20.49;36.47;94078.06;10479934;28;2558;-69
2024/03/29 05:56:19;;;;;;;;;;;;;;;20.24;34.95;94061.22;10471058;28;2601;-69
2024/03/29 06:01:19;;;;;;;;;;;;;;;19.89;35.00;94070.94;10469541;28;2791;-70
2024/03/29 06:06:23;;;;;;;;;;;;;;;19.61;34.35;94090.72;10469134;28;2798;-69
2024/03/29 06:11:23;;;;;;;;;;;;;;;19.36;34.75;94101.94;10466313;28;2922;-70
2024/03/29 06:21:43;;;;;;;;;;;;;;;19.37;35.33;94114.75;10467377;28;2576;-66
2024/03/29 06:26:43;;;;;;;;;;;;;;;19.73;37.75;94117.19;10464982;28;2609;-67
2024/03/29 06:31:44;;;;;;;;;;;;;;;19.83;38.50;94143.19;10467735;28;2851;-68
2024/03/29 06:36:44;;;;;;;;;;;;;;;19.94;39.13;94144.44;10496089;28;2825;-67
2024/03/29 06:41:44;;;;;;;;;;;;;;;20.08;39.69;94112.72;10469310;28;2540;-72
2024/03/29 06:46:45;;;;;;;;;;;;;;;20.17;39.23;94118.78;10470485;28;2516;-72
2024/03/29 06:51:46;;;;;;;;;;;;;;;20.27;38.49;94121.13;10471127;28;2885;-71
2024/03/29 06:56:46;;;;;;;;;;;;;;;20.38;37.21;94127.59;10450734;28;2727;-73
2024/03/29 07:01:52;;;;;;;;;;;;;;;20.39;36.85;94110.75;10461164;28;2835;-69
2024/03/29 07:06:53;;;;;;;;;;;;;;;20.47;36.83;94109.19;10481775;28;2808;-72
2024/03/29 07:11:54;;;;;;;;;;;;;;;20.48;36.91;94102.84;10494854;28;2853;-71
2024/03/29 07:16:55;;;;;;;;;;;;;;;20.45;36.99;94101.59;10460998;28;2760;-71
2024/03/29 07:21:55;;;;;;;;;;;;;;;20.53;36.95;94092.91;10465253;28;2801;-70
2024/03/29 07:26:55;;;;;;;;;;;;;;;20.54;36.97;94089.22;10465544;28;2532;-71
2024/03/29 07:31:56;;;;;;;;;;;;;;;20.58;36.85;94098.03;10463669;28;2847;-71
2024/03/29 07:36:56;;;;;;;;;;;;;;;20.59;37.01;94086.41;10465708;28;2380;-72
2024/03/29 07:41:56;;;;;;;;;;;;;;;20.62;36.54;94092.91;10471259;28;2982;-74
2024/03/29 07:46:56;;;;;;;;;;;;;;;20.66;37.81;94110.41;10468364;28;2786;-64
2024/03/29 07:52:05;;;;;;;;;;;;;;;20.70;37.63;94121.06;10467310;28;2841;-76
2024/03/29 07:57:08;;;;;;;;;;;;;;;20.74;38.04;94128.03;10481031;28;2834;-68
2024/03/29 08:02:08;;;;;;;;;;;;;;;20.76;37.85;94136.41;10470631;28;2713;-66
2024/03/29 08:07:09;;;;;;;;;;;;;;;20.78;38.64;94133.44;10467688;28;2878;-66
2024/03/29 08:12:10;;;;;;;;;;;;;;;20.81;37.95;94136.22;10465055;28;2955;-66
2024/03/29 08:17:10;;;;;;;;;;;;;;;20.81;39.05;94128.31;10460202;28;2735;-65
2024/03/29 08:22:11;;;;;;;;;;;;;;;20.85;38.94;94134.53;10493940;28;2713;-68
2024/03/29 08:27:14;;;;;;;;;;;;;;;20.88;38.21;94114.66;10453005;28;2805;-68
2024/03/29 08:32:14;;;;;;;;;;;;;;;20.93;38.13;94115.28;10468450;28;2508;-69
2024/03/29 08:37:14;;;;;;;;;;;;;;;20.94;38.18;94095.75;10465573;28;2772;-68
2024/03/29 08:42:16;;;;;;;;;;;;;;;20.99;38.25;94105.34;10456247;28;2800;-68
2024/03/29 08:47:17;;;;;;;;;;;;;;;21.01;38.11;94108.44;10448389;28;2773;-68
2024/03/29 08:52:18;;;;;;;;;;;;;;;21.05;38.41;94098.84;10464980;28;2803;-68
2024/03/29 08:57:22;;;;;;;;;;;;;;;21.10;37.97;94097.91;10461840;28;2763;-68
2024/03/29 09:02:22;;;;;;;;;;;;;;;21.14;38.39;94102.25;10457516;28;2713;-69
2024/03/29 09:07:24;;;;;;;;;;;;;;;21.17;38.30;94104.22;10463487;28;2831;-69
2024/03/29 09:12:25;;;;;;;;;;;;;;;21.21;38.25;94101.72;10440859;28;2776;-73
2024/03/29 09:17:26;;;;;;;;;;;;;;;21.21;38.68;94099.09;10461040;28;2842;-72
2024/03/29 09:22:29;;;;;;;;;;;;;;;21.27;38.76;94114.41;10495064;28;2289;-77
2024/03/29 09:27:30;;;;;;;;;;;;;;;21.34;39.51;94103.38;10465370;28;2756;-73
2024/03/29 09:32:30;;;;;;;;;;;;;;;21.33;38.89;94096.59;10467945;28;2775;-76
2024/03/29 09:37:35;;;;;;;;;;;;;;;21.34;39.53;94096.25;10464994;28;2872;-74
2024/03/29 09:42:36;;;;;;;;;;;;;;;21.31;38.88;94093.50;10484348;28;2794;-74
2024/03/29 09:47:36;;;;;;;;;;;;;;;21.31;38.80;94096.13;10485850;28;2886;-74
2024/03/29 09:52:36;;;;;;;;;;;;;;;21.31;38.79;94104.03;10465558;28;2883;-74
2024/03/29 09:57:37;;;;;;;;;;;;;;;21.31;38.45;94096.13;10464118;28;2916;-73
2024/03/29 10:02:37;;;;;;;;;;;;;;;21.32;38.66;94102.94;10494600;28;2941;-74
2024/03/29 10:07:38;;;;;;;;;;;;;;;21.36;38.26;94095.94;10484110;28;2772;-73
2024/03/29 10:12:39;;;;;;;;;;;;;;;21.35;39.04;94097.03;10471020;28;2723;-74
2024/03/29 10:17:39;;;;;;;;;;;;;;;21.36;38.54;94095.94;10464232;28;2808;-75
2024/03/29 10:22:43;;;;;;;;;;;;;;;21.37;39.87;94102.75;10497464;28;2880;-75
2024/03/29 10:27:44;;;;;;;;;;;;;;;21.41;39.13;94099.16;10466216;28;2672;-73
2024/03/29 10:32:44;;;;;;;;;;;;;;;21.41;39.24;94098.41;10467159;28;2783;-72
2024/03/29 10:37:44;;;;;;;;;;;;;;;21.38;38.87;94081.34;10470433;28;2753;-72
2024/03/29 10:42:45;;;;;;;;;;;;;;;21.48;39.85;94088.91;10475481;28;2566;-69
2024/03/29 10:47:46;;;;;;;;;;;;;;;21.53;41.22;94075.53;10467493;28;2685;-69
2024/03/29 10:52:47;;;;;;;;;;;;;;;21.46;38.76;94066.56;10468064;28;2866;-72
2024/03/29 10:57:49;;;;;;;;;;;;;;;21.22;36.89;94061.13;10448441;28;2871;-61
2024/03/29 11:02:52;;;;;;;;;;;;;;;21.26;39.11;94059.41;10464376;28;2721;-59
2024/03/29 11:07:53;;;;;;;;;;;;;;;21.32;41.19;94058.13;10470547;28;2830;-62
2024/03/29 11:13:01;;;;;;;;;;;;;;;21.33;42.77;94043.88;10464656;28;2775;-66
2024/03/29 11:18:02;;;;;;;;;;;;;;;21.34;42.70;94045.41;10470595;28;2890;-66
2024/03/29 11:23:12;;;;;;;;;;;;;;;21.38;42.37;94043.66;10463861;28;2694;-63
2024/03/29 11:28:13;;;;;;;;;;;;;;;21.36;44.48;94048.50;10463937;28;2786;-64
2024/03/29 11:33:26;;;;;;;;;;;;;;;21.34;44.70;94046.19;10466322;28;2775;-61
2024/03/29 11:38:30;;;;;;;;;;;;;;;21.29;42.02;94048.25;10461765;28;2894;-59
2024/03/29 11:43:31;;;;;;;;;;;;;;;21.26;41.93;94044.38;10461892;28;2574;-69
2024/03/29 11:48:31;;;;;;;;;;;;;;;21.23;42.65;94044.22;10464246;28;2772;-68
2024/03/29 11:53:32;;;;;;;;;;;;;;;21.20;42.46;94035.09;10466437;28;2787;-72
2024/03/29 11:58:33;;;;;;;;;;;;;;;21.14;41.80;94031.09;10443033;28;2732;-75
2024/03/29 12:03:37;;;;;;;;;;;;;;;21.13;42.02;94044.56;10460619;28;2783;-72
2024/03/29 12:08:42;;;;;;;;;;;;;;;21.10;42.48;94030.19;10462314;28;2725;-68
2024/03/29 12:13:44;;;;;;;;;;;;;;;21.08;42.44;94023.69;10461913;28;2791;-68
2024/03/29 12:18:46;;;;;;;;;;;;;;;21.06;43.01;94021.38;10478462;28;2912;-68
2024/03/29 12:23:47;;;;;;;;;;;;;;;21.04;42.88;94015.66;10461327;28;2861;-69
2024/03/29 12:28:48;;;;;;;;;;;;;;;21.03;42.93;94003.56;10455611;28;2941;-67
2024/03/29 12:33:52;;;;;;;;;;;;;;;21.01;43.20;93995.94;10480770;28;2582;-68
2024/03/29 12:38:58;;;;;;;;;;;;;;;21.00;43.32;93986.50;10487222;28;2782;-69
2024/03/29 12:43:59;;;;;;;;;;;;;;;21.00;43.61;93986.50;10452024;28;2913;-69
2024/03/29 12:48:59;;;;;;;;;;;;;;;21.00;44.04;93972.53;10454535;28;2717;-68
2024/03/29 12:54:03;;;;;;;;;;;;;;;21.00;44.44;93969.91;10463073;28;2796;-68
2024/03/29 12:59:04;;;;;;;;;;;;;;;21.01;44.90;93961.72;10459441;28;2780;-71
2024/03/29 13:04:04;;;;;;;;;;;;;;;21.01;44.84;93948.53;10470427;28;2791;-72
2024/03/29 13:09:04;;;;;;;;;;;;;;;21.01;44.75;93940.63;10472791;28;2741;-76
2024/03/29 13:14:06;;;;;;;;;;;;;;;21.00;44.35;93941.72;10463323;28;2813;-64
2024/03/29 13:19:06;;;;;;;;;;;;;;;20.99;44.07;93932.28;10470889;28;2834;-65
2024/03/29 13:24:07;;;;;;;;;;;;;;;20.99;44.49;93939.41;10471914;28;2573;-61
2024/03/29 13:29:07;;;;;;;;;;;;;;;20.95;44.39;93930.59;10496727;28;2869;-66
2024/03/29 13:34:14;;;;;;;;;;;;;;;20.95;44.37;93933.22;10467335;28;2900;-63
2024/03/29 13:39:15;;;;;;;;;;;;;;;20.97;44.71;93928.41;10469569;28;2831;-59
2024/03/29 13:44:17;;;;;;;;;;;;;;;20.97;44.73;93917.88;10469606;28;2759;-59
2024/03/29 13:49:20;;;;;;;;;;;;;;;20.96;44.53;93922.38;10473675;28;2803;-58
2024/03/29 13:54:20;;;;;;;;;;;;;;;20.98;44.88;93922.81;10469022;28;2806;-67
2024/03/29 13:59:21;;;;;;;;;;;;;;;20.94;44.51;93906.13;10465579;28;2858;-63
2024/03/29 14:04:21;;;;;;;;;;;;;;;20.92;44.15;93921.47;10466383;28;2937;-59
2024/03/29 14:09:21;;;;;;;;;;;;;;;20.91;43.75;93919.94;10465418;28;2791;-61
2024/03/29 14:14:22;;;;;;;;;;;;;;;20.91;44.12;93922.56;10457149;28;3005;-60
2024/03/29 14:19:22;;;;;;;;;;;;;;;20.91;44.19;93914.66;10467122;28;2772;-60
2024/03/29 14:24:24;;;;;;;;;;;;;;;20.89;44.16;93916.84;10466015;28;2817;-60
2024/03/29 14:29:25;;;;;;;;;;;;;;;20.89;44.41;93919.47;10463995;28;2907;-64
2024/03/29 14:34:26;;;;;;;;;;;;;;;20.89;44.41;93922.13;10467192;28;2791;-65
2024/03/29 14:39:27;;;;;;;;;;;;;;;20.86;44.26;93912.22;10462485;28;2790;-65
2024/03/29 14:44:28;;;;;;;;;;;;;;;20.84;44.09;93922.28;10464687;28;2967;-65
2024/03/29 14:49:28;;;;;;;;;;;;;;;20.81;44.22;93927.44;10469632;28;2795;-65
2024/03/29 14:54:28;;;;;;;;;;;;;;;20.78;43.80;93917.53;10465359;28;2877;-65
2024/03/29 14:59:30;;;;;;;;;;;;;;;20.77;44.18;93916.00;10466229;28;2905;-65
2024/03/29 15:04:30;;;;;;;;;;;;;;;20.75;43.96;93920.81;10466282;28;2803;-66
2024/03/29 15:09:30;;;;;;;;;;;;;;;20.72;44.08;93922.19;10462093;28;2825;-64
2024/03/29 15:14:31;;;;;;;;;;;;;;;20.72;44.28;93930.09;10461203;28;2614;-65
2024/03/29 15:19:31;;;;;;;;;;;;;;;20.71;44.32;93936.44;10497587;28;2810;-64
2024/03/29 15:24:31;;;;;;;;;;;;;;;20.69;44.23;93927.34;10468780;28;2847;-64
2024/03/29 15:29:32;;;;;;;;;;;;;;;20.66;44.04;93944.53;10463671;28;2862;-64
2024/03/29 15:34:32;;;;;;;;;;;;;;;20.64;43.92;93944.09;10466487;28;2843;-64
2024/03/29 15:39:32;;;;;;;;;;;;;;;20.63;43.69;93957.56;10463475;28;2851;-64
2024/03/29 15:44:32;;;;;;;;;;;;;;;20.61;43.86;93954.47;10464808;28;2898;-64
2024/03/29 15:49:33;;;;;;;;;;;;;;;20.58;43.47;93950.63;10467886;28;2783;-64
2024/03/29 15:54:34;;;;;;;;;;;;;;;20.55;43.30;93953.88;10468310;28;2913;-66
2024/03/29 15:59:34;;;;;;;;;;;;;;;20.54;43.92;93960.22;10460517;28;2902;-66
2024/03/29 16:04:34;;;;;;;;;;;;;;;20.55;44.48;93971.50;10496894;28;2817;-65
2024/03/29 16:09:35;;;;;;;;;;;;;;;20.54;44.62;93970.75;10465074;28;2776;-65
2024/03/29 16:14:35;;;;;;;;;;;;;;;20.53;44.47;93966.56;10466956;28;2736;-66
2024/03/29 16:19:35;;;;;;;;;;;;;;;20.52;44.51;93961.63;10471080;28;2711;-65
2024/03/29 16:24:35;;;;;;;;;;;;;;;20.53;44.64;93963.94;10467003;28;2823;-65
2024/03/29 16:29:36;;;;;;;;;;;;;;;20.52;44.61;93966.88;10449125;28;2834;-63
2024/03/29 16:34:36;;;;;;;;;;;;;;;20.50;44.57;93961.16;10461697;28;2844;-67
2024/03/29 16:39:36;;;;;;;;;;;;;;;20.50;44.82;93975.09;10463127;28;2842;-67
2024/03/29 16:44:36;;;;;;;;;;;;;;;20.51;45.65;93978.50;10460357;28;2896;-67
2024/03/29 16:49:37;;;;;;;;;;;;;;;20.52;45.89;93974.78;10480721;28;2939;-68
2024/03/29 16:54:37;;;;;;;;;;;;;;;20.50;45.47;93969.84;10478861;28;2725;-67
2024/03/29 16:59:37;;;;;;;;;;;;;;;20.49;45.39;93972.78;10457832;28;2740;-69
2024/03/29 17:04:37;;;;;;;;;;;;;;;20.48;45.34;93987.03;10467885;28;2760;-68
2024/03/29 17:09:38;;;;;;;;;;;;;;;20.46;45.23;93979.47;10494579;28;2809;-69
2024/03/29 17:14:39;;;;;;;;;;;;;;;20.44;45.25;93979.00;10461440;28;2562;-69
2024/03/29 17:19:39;;;;;;;;;;;;;;;20.43;45.11;93985.34;10469948;28;2774;-69
2024/03/29 17:24:39;;;;;;;;;;;;;;;20.41;45.16;93976.97;10463872;28;2770;-70
2024/03/29 17:29:39;;;;;;;;;;;;;;;20.40;45.06;93983.34;10481859;28;2586;-69
2024/03/29 17:34:40;;;;;;;;;;;;;;;20.40;45.31;93985.97;10493098;28;2801;-69
2024/03/29 17:39:40;;;;;;;;;;;;;;;20.40;45.14;93995.72;10476053;28;2763;-69
2024/03/29 17:44:40;;;;;;;;;;;;;;;20.39;45.46;93994.94;10457166;28;2827;-68
2024/03/29 17:49:40;;;;;;;;;;;;;;;20.38;45.37;94003.16;10470236;28;2483;-72
2024/03/29 17:54:41;;;;;;;;;;;;;;;20.36;45.41;94003.47;10467982;28;2978;-69
2024/03/29 17:59:42;;;;;;;;;;;;;;;20.35;45.16;94015.09;10465167;28;2796;-70
2024/03/29 18:04:42;;;;;;;;;;;;;;;20.35;45.31;94014.31;10501498;28;2844;-69
2024/03/29 18:09:42;;;;;;;;;;;;;;;20.34;45.55;94024.03;10468238;28;2742;-68
2024/03/29 18:14:43;;;;;;;;;;;;;;;20.34;45.38;94023.28;10471200;28;2670;-68
2024/03/29 18:19:43;;;;;;;;;;;;;;;20.33;45.33;94033.03;10449254;28;2711;-70
2024/03/29 18:24:43;;;;;;;;;;;;;;;20.33;45.30;94042.78;10468294;28;2787;-69
2024/03/29 18:29:44;;;;;;;;;;;;;;;20.32;45.51;94051.78;10469408;28;2453;-68
2024/03/29 18:34:44;;;;;;;;;;;;;;;20.30;45.75;94044.19;10469092;28;2660;-68
2024/03/29 18:39:44;;;;;;;;;;;;;;;20.29;45.44;94042.66;10466809;28;2840;-68
2024/03/29 18:44:45;;;;;;;;;;;;;;;20.28;45.42;94043.72;10451614;28;2802;-68
2024/03/29 18:49:45;;;;;;;;;;;;;;;20.26;45.50;94051.94;10473888;28;2809;-68
2024/03/29 18:54:45;;;;;;;;;;;;;;;20.26;45.22;94059.03;10471799;28;2709;-68
2024/03/29 18:59:46;;;;;;;;;;;;;;;20.24;45.48;94066.47;10482176;28;2724;-68
2024/03/29 19:04:46;;;;;;;;;;;;;;;20.24;45.47;94066.47;10455608;28;2791;-68
2024/03/29 19:09:48;;;;;;;;;;;;;;;20.22;45.51;94068.66;10472200;28;2803;-68
2024/03/29 19:14:49;;;;;;;;;;;;;;;20.22;45.49;94074.69;10463452;28;2811;-68
2024/03/29 19:19:50;;;;;;;;;;;;;;;20.21;45.42;94088.16;10466699;28;2643;-67
2024/03/29 19:24:52;;;;;;;;;;;;;;;20.20;45.48;94083.97;10482301;28;2713;-68
2024/03/29 19:29:53;;;;;;;;;;;;;;;20.19;45.39;94080.59;10457016;28;2791;-69
2024/03/29 19:34:53;;;;;;;;;;;;;;;20.17;45.28;94087.22;10482444;28;2774;-69
2024/03/29 19:39:54;;;;;;;;;;;;;;;20.16;45.37;94101.44;10466964;28;2855;-69
2024/03/29 19:44:54;;;;;;;;;;;;;;;20.15;45.43;94098.03;10454997;28;2904;-68
2024/03/29 19:49:54;;;;;;;;;;;;;;;20.15;45.38;94102.53;10466812;28;2893;-68
2024/03/29 19:54:55;;;;;;;;;;;;;;;20.14;45.97;94107.00;10467583;28;2852;-68
2024/03/29 19:59:55;;;;;;;;;;;;;;;20.14;45.62;94103.59;10476342;28;2873;-69
2024/03/29 20:04:58;;;;;;;;;;;;;;;20.16;44.55;94128.53;10473350;28;2735;-68
2024/03/29 20:09:58;;;;;;;;;;;;;;;20.21;44.59;94123.16;10461382;28;2839;-77
2024/03/29 20:14:58;;;;;;;;;;;;;;;20.30;44.73;94128.38;10426029;28;2805;-64
2024/03/29 20:19:58;;;;;;;;;;;;;;;20.36;44.35;94127.13;10464994;28;2795;-64
2024/03/29 20:24:59;;;;;;;;;;;;;;;20.43;44.15;94129.31;10465937;28;2807;-64
2024/03/29 20:29:59;;;;;;;;;;;;;;;20.48;43.82;94137.84;10457601;28;2721;-70
2024/03/29 20:34:59;;;;;;;;;;;;;;;20.53;44.43;94137.66;10492799;28;2810;-69
2024/03/29 20:39:59;;;;;;;;;;;;;;;20.59;44.64;94136.41;10494433;28;2789;-68
2024/03/29 20:45:06;;;;;;;;;;;;;;;20.62;44.86;94130.53;10461326;28;2830;-70
2024/03/29 20:50:08;;;;;;;;;;;;;;;20.65;44.44;94131.78;10442374;28;2779;-71
2024/03/29 20:55:09;;;;;;;;;;;;;;;20.65;44.64;94135.16;10478818;28;2796;-69
2024/03/29 21:00:10;;;;;;;;;;;;;;;20.67;44.89;94140.88;10459056;28;2916;-70
2024/03/29 21:10:30;;;;;;;;;;;;;;;20.66;44.84;94136.72;10459717;28;2787;-68
2024/03/29 21:15:30;;;;;;;;;;;;;;;20.65;44.75;94143.06;10472551;28;2943;-69
2024/03/29 21:20:31;;;;;;;;;;;;;;;20.63;44.93;94139.97;10460475;28;2978;-69
2024/03/29 21:25:33;;;;;;;;;;;;;;;20.62;44.74;94145.56;10453466;28;2555;-70
2024/03/29 21:30:34;;;;;;;;;;;;;;;20.60;44.84;94143.25;10467145;28;2612;-69
2024/03/29 21:35:34;;;;;;;;;;;;;;;20.60;44.67;94147.72;10472281;28;2702;-70
2024/03/29 21:40:34;;;;;;;;;;;;;;;20.58;44.83;94150.69;10471930;28;2760;-69
2024/03/29 21:45:35;;;;;;;;;;;;;;;20.56;45.02;94158.13;10474931;28;2830;-69
2024/03/29 21:50:35;;;;;;;;;;;;;;;20.55;44.74;94151.28;10472079;28;2508;-70
2024/03/29 21:55:35;;;;;;;;;;;;;;;20.52;44.78;94159.81;10467357;28;2597;-70
2024/03/29 22:00:36;;;;;;;;;;;;;;;20.51;44.86;94160.09;10468520;28;2659;-69
2024/03/29 22:05:41;;;;;;;;;;;;;;;20.49;45.00;94173.59;10471205;28;2833;-70
2024/03/29 22:10:41;;;;;;;;;;;;;;;20.47;45.16;94167.84;10453516;28;2747;-70
2024/03/29 22:15:41;;;;;;;;;;;;;;;20.46;45.06;94184.75;10469900;28;2640;-71
2024/03/29 22:20:41;;;;;;;;;;;;;;;20.43;45.04;94166.94;10453953;28;2867;-71
2024/03/29 22:25:42;;;;;;;;;;;;;;;20.42;45.04;94175.94;10497448;28;2894;-70
2024/03/29 22:30:42;;;;;;;;;;;;;;;20.41;44.93;94182.25;10469008;28;2666;-70
2024/03/29 22:35:42;;;;;;;;;;;;;;;20.38;44.87;94185.50;10462771;28;2857;-70
2024/03/29 22:40:46;;;;;;;;;;;;;;;20.36;45.10;94174.50;10466220;28;2838;-69
2024/03/29 22:45:46;;;;;;;;;;;;;;;20.37;44.75;94175.28;10467337;28;2825;-69
2024/03/29 22:50:47;;;;;;;;;;;;;;;20.35;45.06;94174.81;10462923;28;2882;-70
2024/03/29 22:55:47;;;;;;;;;;;;;;;20.34;45.12;94171.41;10497631;28;2868;-69
2024/03/29 23:00:48;;;;;;;;;;;;;;;20.33;44.83;94171.72;10465738;28;2858;-70
2024/03/29 23:05:48;;;;;;;;;;;;;;;20.31;45.28;94166.78;10495928;27;2878;-71
2024/03/29 23:10:52;;;;;;;;;;;;;;;20.30;45.02;94170.47;10471062;28;2813;-69
2024/03/29 23:15:52;;;;;;;;;;;;;;;20.30;45.23;94186.28;10466865;28;2862;-70
2024/03/29 23:20:53;;;;;;;;;;;;;;;20.28;44.97;94188.44;10463300;28;2938;-70
2024/03/29 23:25:54;;;;;;;;;;;;;;;20.27;44.99;94192.16;10498194;28;2754;-70
2024/03/29 23:30:54;;;;;;;;;;;;;;;20.26;45.17;94195.88;10467043;28;2672;-70
2024/03/29 23:35:54;;;;;;;;;;;;;;;20.25;45.00;94186.44;10464377;28;2674;-71
2024/03/29 23:40:55;;;;;;;;;;;;;;;20.25;44.89;94197.75;10465088;28;2783;-70
2024/03/29 23:45:59;;;;;;;;;;;;;;;20.24;45.05;94198.03;10497415;27;2622;-69
2024/03/29 23:50:59;;;;;;;;;;;;;;;20.22;45.12;94193.09;10456905;28;2787;-70
2024/03/29 23:55:59;;;;;;;;;;;;;;;20.20;44.98;94191.84;10463685;28;2738;-69
